Create Tblcommutelog Verified Points Advance Search
| # | Trip ID | Id Commuter | Trip Date | Trip Num | Current Lat | Current Lng | Delta Distance | Current Time | Activity | Activity Confidence | Current Speed | |
|---|---|---|---|---|---|---|---|---|---|---|---|---|
| 72761 | 250325_606167_6461772_0603 | 606167 | (not set) | (not set) | 38.798032701052 | -77.168384743926 | 3.4407 | 2025-03-25 10:12:43.113 | in_vehicle | 100 | -0.44703925898772 | |
| 72762 | 250325_782653_16479789_0601 | 782653 | (not set) | (not set) | 38.933961202842 | -77.367679877877 | 1.269 | 2025-03-25 10:12:44.512 | on_bicycle | 100 | 1.7345123248724 | |
| 72763 | 250325_606167_6461772_0603 | 606167 | (not set) | (not set) | 38.798476187548 | -77.167870597986 | 3.4407 | 2025-03-25 10:12:46.632 | in_vehicle | 100 | -0.44703925898772 | |
| 72764 | 250325_606167_6461772_0603 | 606167 | (not set) | (not set) | 38.798811631313 | -77.167219156471 | 3.4407 | 2025-03-25 10:12:49.854 | in_vehicle | 100 | -0.44703925898772 | |
| 72765 | 250325_781350_16450333_0604 | 781350 | (not set) | (not set) | 39.050467242274 | -76.737998682634 | 3.7149 | 2025-03-25 10:12:53.422 | in_vehicle | 100 | 16.567274938085 | |
| 72766 | 250325_719367_16505892_0453 | 719367 | (not set) | (not set) | 38.845786956327 | -77.049329051584 | 32.5689 | 2025-03-25 10:12:54.217 | in_vehicle | 100 | 7.2509767807809 | |
| 72767 | 250325_606167_6461772_0603 | 606167 | (not set) | (not set) | 38.800757532044 | -77.165419813317 | 3.4407 | 2025-03-25 10:12:57.287 | in_vehicle | 100 | -0.44703925898772 | |
| 72768 | 250325_606167_6461772_0603 | 606167 | (not set) | (not set) | 38.801135974972 | -77.164998706502 | 3.4407 | 2025-03-25 10:12:59.078 | in_vehicle | 100 | -0.44703925898772 | |
| 72769 | 250325_606167_6461772_0603 | 606167 | (not set) | (not set) | 38.801512992977 | -77.164579359886 | 3.4407 | 2025-03-25 10:13:01.168 | in_vehicle | 100 | -0.44703925898772 | |
| 72770 | 250325_782653_16479789_0601 | 782653 | (not set) | (not set) | 38.933135226674 | -77.36816878946 | 1.3318 | 2025-03-25 10:13:01.5 | on_bicycle | 100 | 2.2530778652981 | |
| 72771 | 250325_606167_6461772_0603 | 606167 | (not set) | (not set) | 38.802044028452 | -77.164116343555 | 3.4407 | 2025-03-25 10:13:04.162 | in_vehicle | 100 | -0.44703925898772 | |
| 72772 | 250325_781350_16450333_0604 | 781350 | (not set) | (not set) | 39.046916897012 | -76.739425055059 | 3.9716 | 2025-03-25 10:13:04.438 | in_vehicle | 100 | 16.75503142686 | |
| 72773 | 250325_606167_6461772_0603 | 606167 | (not set) | (not set) | 38.802410359531 | -77.1637021099 | 3.4407 | 2025-03-25 10:13:06.082 | in_vehicle | 100 | -0.44703925898772 | |
| 72774 | 250325_719367_16505892_0453 | 719367 | (not set) | (not set) | 38.843932102528 | -77.049179894746 | 32.6971 | 2025-03-25 10:13:06.218 | in_vehicle | 100 | 8.9810187130634 | |
| 72775 | 250325_606167_6461772_0603 | 606167 | (not set) | (not set) | 38.80277480468 | -77.163289301169 | 3.4407 | 2025-03-25 10:13:08.156 | in_vehicle | 100 | -0.44703925898772 | |
| 72776 | 250325_606167_6461772_0603 | 606167 | (not set) | (not set) | 38.803032296746 | -77.162728468028 | 3.4407 | 2025-03-25 10:13:09.087 | in_vehicle | 100 | 12.847908303307 | |
| 72777 | 250325_782653_16479789_0601 | 782653 | (not set) | (not set) | 38.932845407544 | -77.368380356354 | 1.3548 | 2025-03-25 10:13:09.48 | on_bicycle | 100 | 2.2396666875285 | |
| 72778 | 250325_755334_16501377_0602 | 755334 | (not set) | (not set) | 38.9513201 | -77.4077777 | 0.4301 | 2025-03-25 10:13:11.502 | still | 100 | 0.031292748129141 | |
| 72779 | 250325_781350_16450333_0604 | 781350 | (not set) | (not set) | 39.043539190029 | -76.741912538635 | 4.2403 | 2025-03-25 10:13:16.449 | in_vehicle | 100 | 16.281169812333 | |
| 72780 | 250325_719367_16505892_0453 | 719367 | (not set) | (not set) | 38.841735068754 | -77.048480842462 | 32.8533 | 2025-03-25 10:13:21.228 | in_vehicle | 100 | 8.1316441209867 |